sensor_id;sensor_type;location;lat;lon;timestamp;temperature;humidity
16879;DHT22;8556;52.218;9.884;2022-08-05T00:01:40;21.80;99.90
16879;DHT22;8556;52.218;9.884;2022-08-05T00:04:07;22.00;99.90
16879;DHT22;8556;52.218;9.884;2022-08-05T00:06:35;21.90;99.90
16879;DHT22;8556;52.218;9.884;2022-08-05T00:09:02;21.90;99.90
16879;DHT22;8556;52.218;9.884;2022-08-05T00:11:30;21.80;99.90
16879;DHT22;8556;52.218;9.884;2022-08-05T00:13:57;21.80;99.90
16879;DHT22;8556;52.218;9.884;2022-08-05T00:16:24;21.60;99.90
16879;DHT22;8556;52.218;9.884;2022-08-05T00:18:53;21.50;99.90
16879;DHT22;8556;52.218;9.884;2022-08-05T00:21:20;21.70;99.90
16879;DHT22;8556;52.218;9.884;2022-08-05T00:23:47;21.30;99.90
16879;DHT22;8556;52.218;9.884;2022-08-05T00:26:14;21.20;99.90
16879;DHT22;8556;52.218;9.884;2022-08-05T00:28:42;21.10;99.90
16879;DHT22;8556;52.218;9.884;2022-08-05T00:31:09;21.20;99.90
16879;DHT22;8556;52.218;9.884;2022-08-05T00:33:36;21.20;99.90
16879;DHT22;8556;52.218;9.884;2022-08-05T00:36:05;21.00;99.90
16879;DHT22;8556;52.218;9.884;2022-08-05T00:38:32;21.00;99.90
16879;DHT22;8556;52.218;9.884;2022-08-05T00:40:59;21.00;99.90
16879;DHT22;8556;52.218;9.884;2022-08-05T00:43:26;20.90;99.90
16879;DHT22;8556;52.218;9.884;2022-08-05T00:45:55;20.80;99.90
16879;DHT22;8556;52.218;9.884;2022-08-05T00:48:22;20.90;99.90
16879;DHT22;8556;52.218;9.884;2022-08-05T00:50:51;20.80;99.90
16879;DHT22;8556;52.218;9.884;2022-08-05T00:53:21;20.70;99.90
16879;DHT22;8556;52.218;9.884;2022-08-05T00:55:49;20.70;99.90
16879;DHT22;8556;52.218;9.884;2022-08-05T00:58:17;20.70;99.90
16879;DHT22;8556;52.218;9.884;2022-08-05T01:00:44;20.70;99.90
16879;DHT22;8556;52.218;9.884;2022-08-05T01:03:12;20.50;99.90
16879;DHT22;8556;52.218;9.884;2022-08-05T01:05:39;20.50;99.90
16879;DHT22;8556;52.218;9.884;2022-08-05T01:08:07;20.60;99.90
16879;DHT22;8556;52.218;9.884;2022-08-05T01:10:40;20.50;99.90
16879;DHT22;8556;52.218;9.884;2022-08-05T01:13:13;20.30;99.90
16879;DHT22;8556;52.218;9.884;2022-08-05T01:15:46;20.20;99.90
16879;DHT22;8556;52.218;9.884;2022-08-05T01:18:22;20.30;99.90
16879;DHT22;8556;52.218;9.884;2022-08-05T01:20:59;20.20;99.90
16879;DHT22;8556;52.218;9.884;2022-08-05T01:23:36;20.20;99.90
16879;DHT22;8556;52.218;9.884;2022-08-05T01:26:31;20.40;99.90
16879;DHT22;8556;52.218;9.884;2022-08-05T01:29:03;20.20;99.90
16879;DHT22;8556;52.218;9.884;2022-08-05T01:31:36;20.20;99.90
16879;DHT22;8556;52.218;9.884;2022-08-05T01:34:09;20.10;99.90
16879;DHT22;8556;52.218;9.884;2022-08-05T01:36:41;20.30;99.90
16879;DHT22;8556;52.218;9.884;2022-08-05T01:39:10;20.20;99.90
16879;DHT22;8556;52.218;9.884;2022-08-05T01:41:38;20.00;99.90
16879;DHT22;8556;52.218;9.884;2022-08-05T01:44:09;20.10;99.90
16879;DHT22;8556;52.218;9.884;2022-08-05T01:46:39;20.00;99.90
16879;DHT22;8556;52.218;9.884;2022-08-05T01:49:09;20.00;99.90
16879;DHT22;8556;52.218;9.884;2022-08-05T01:51:37;20.10;99.90
16879;DHT22;8556;52.218;9.884;2022-08-05T01:54:06;20.00;99.90
16879;DHT22;8556;52.218;9.884;2022-08-05T01:56:38;20.00;99.90
16879;DHT22;8556;52.218;9.884;2022-08-05T01:59:13;19.80;99.90
16879;DHT22;8556;52.218;9.884;2022-08-05T02:01:42;19.90;99.90
16879;DHT22;8556;52.218;9.884;2022-08-05T02:04:14;19.90;99.90
16879;DHT22;8556;52.218;9.884;2022-08-05T02:06:43;19.80;99.90
16879;DHT22;8556;52.218;9.884;2022-08-05T02:09:10;19.80;99.90
16879;DHT22;8556;52.218;9.884;2022-08-05T02:11:42;19.70;99.90
16879;DHT22;8556;52.218;9.884;2022-08-05T02:14:16;19.70;99.90
16879;DHT22;8556;52.218;9.884;2022-08-05T02:16:45;19.70;99.90
16879;DHT22;8556;52.218;9.884;2022-08-05T02:19:18;19.80;99.90
16879;DHT22;8556;52.218;9.884;2022-08-05T02:21:52;19.60;99.90
16879;DHT22;8556;52.218;9.884;2022-08-05T02:24:22;19.70;99.90
16879;DHT22;8556;52.218;9.884;2022-08-05T02:26:56;19.70;99.90
16879;DHT22;8556;52.218;9.884;2022-08-05T02:29:27;19.60;99.90
16879;DHT22;8556;52.218;9.884;2022-08-05T02:31:56;19.60;99.90
16879;DHT22;8556;52.218;9.884;2022-08-05T02:34:27;19.60;99.90
16879;DHT22;8556;52.218;9.884;2022-08-05T02:36:59;19.90;99.90
16879;DHT22;8556;52.218;9.884;2022-08-05T02:39:30;20.10;99.90
16879;DHT22;8556;52.218;9.884;2022-08-05T02:42:01;20.00;99.90
16879;DHT22;8556;52.218;9.884;2022-08-05T02:44:33;20.00;99.90
16879;DHT22;8556;52.218;9.884;2022-08-05T02:47:02;19.60;99.90
16879;DHT22;8556;52.218;9.884;2022-08-05T02:49:33;19.10;99.90
16879;DHT22;8556;52.218;9.884;2022-08-05T02:52:02;18.90;99.90
16879;DHT22;8556;52.218;9.884;2022-08-05T02:54:31;18.80;99.90
16879;DHT22;8556;52.218;9.884;2022-08-05T02:56:59;18.70;99.90
16879;DHT22;8556;52.218;9.884;2022-08-05T02:59:27;18.60;99.90
16879;DHT22;8556;52.218;9.884;2022-08-05T03:01:57;18.60;99.90
16879;DHT22;8556;52.218;9.884;2022-08-05T03:04:25;18.60;99.90
16879;DHT22;8556;52.218;9.884;2022-08-05T03:06:53;19.00;99.90
16879;DHT22;8556;52.218;9.884;2022-08-05T03:09:21;19.10;99.90
16879;DHT22;8556;52.218;9.884;2022-08-05T03:11:48;19.10;99.90
16879;DHT22;8556;52.218;9.884;2022-08-05T03:14:16;19.00;99.90
16879;DHT22;8556;52.218;9.884;2022-08-05T03:16:43;18.90;99.90
16879;DHT22;8556;52.218;9.884;2022-08-05T03:19:12;18.90;99.90
16879;DHT22;8556;52.218;9.884;2022-08-05T03:21:39;19.00;99.90
16879;DHT22;8556;52.218;9.884;2022-08-05T03:24:06;19.10;99.90
16879;DHT22;8556;52.218;9.884;2022-08-05T03:26:34;19.00;99.90
16879;DHT22;8556;52.218;9.884;2022-08-05T03:29:01;19.10;99.90
16879;DHT22;8556;52.218;9.884;2022-08-05T03:31:29;18.80;99.90
16879;DHT22;8556;52.218;9.884;2022-08-05T03:33:56;18.90;99.90
16879;DHT22;8556;52.218;9.884;2022-08-05T03:36:25;19.00;99.90
16879;DHT22;8556;52.218;9.884;2022-08-05T03:38:52;18.90;99.90
16879;DHT22;8556;52.218;9.884;2022-08-05T03:41:19;19.20;99.90
16879;DHT22;8556;52.218;9.884;2022-08-05T03:43:46;19.30;99.90
16879;DHT22;8556;52.218;9.884;2022-08-05T03:46:13;19.40;99.90
16879;DHT22;8556;52.218;9.884;2022-08-05T03:48:41;19.10;99.90
16879;DHT22;8556;52.218;9.884;2022-08-05T03:51:11;19.10;99.90
16879;DHT22;8556;52.218;9.884;2022-08-05T03:53:45;19.00;99.90
16879;DHT22;8556;52.218;9.884;2022-08-05T03:56:19;18.90;99.90
16879;DHT22;8556;52.218;9.884;2022-08-05T03:58:48;18.80;99.90
16879;DHT22;8556;52.218;9.884;2022-08-05T04:01:16;19.00;99.90
16879;DHT22;8556;52.218;9.884;2022-08-05T04:03:47;19.10;99.90
16879;DHT22;8556;52.218;9.884;2022-08-05T04:06:16;19.10;99.90
16879;DHT22;8556;52.218;9.884;2022-08-05T04:08:46;19.20;99.90
16879;DHT22;8556;52.218;9.884;2022-08-05T04:11:13;19.20;99.90
16879;DHT22;8556;52.218;9.884;2022-08-05T04:13:41;19.20;99.90
16879;DHT22;8556;52.218;9.884;2022-08-05T04:16:08;19.10;99.90
16879;DHT22;8556;52.218;9.884;2022-08-05T04:18:37;19.00;99.90
16879;DHT22;8556;52.218;9.884;2022-08-05T04:21:05;19.10;99.90
16879;DHT22;8556;52.218;9.884;2022-08-05T04:23:33;19.10;99.90
16879;DHT22;8556;52.218;9.884;2022-08-05T04:26:02;19.10;99.90
16879;DHT22;8556;52.218;9.884;2022-08-05T04:28:29;19.00;99.90
16879;DHT22;8556;52.218;9.884;2022-08-05T04:30:56;19.10;99.90
16879;DHT22;8556;52.218;9.884;2022-08-05T04:33:23;19.00;99.90
16879;DHT22;8556;52.218;9.884;2022-08-05T04:35:50;19.00;99.90
16879;DHT22;8556;52.218;9.884;2022-08-05T04:38:17;19.00;99.90
16879;DHT22;8556;52.218;9.884;2022-08-05T04:40:44;19.10;99.90
16879;DHT22;8556;52.218;9.884;2022-08-05T04:43:13;19.00;99.90
16879;DHT22;8556;52.218;9.884;2022-08-05T04:45:40;19.10;99.90
16879;DHT22;8556;52.218;9.884;2022-08-05T04:48:08;19.00;99.90
16879;DHT22;8556;52.218;9.884;2022-08-05T04:50:40;19.10;99.90
16879;DHT22;8556;52.218;9.884;2022-08-05T04:53:07;19.00;99.90
16879;DHT22;8556;52.218;9.884;2022-08-05T04:55:35;19.00;99.90
16879;DHT22;8556;52.218;9.884;2022-08-05T04:58:03;19.00;99.90
16879;DHT22;8556;52.218;9.884;2022-08-05T05:00:31;18.90;99.90
16879;DHT22;8556;52.218;9.884;2022-08-05T05:02:59;19.00;99.90
16879;DHT22;8556;52.218;9.884;2022-08-05T05:05:26;19.00;99.90
16879;DHT22;8556;52.218;9.884;2022-08-05T05:07:54;18.90;99.90
16879;DHT22;8556;52.218;9.884;2022-08-05T05:10:21;18.90;99.90
16879;DHT22;8556;52.218;9.884;2022-08-05T05:12:48;18.90;99.90
16879;DHT22;8556;52.218;9.884;2022-08-05T05:15:15;18.90;99.90
16879;DHT22;8556;52.218;9.884;2022-08-05T05:17:43;19.00;99.90
16879;DHT22;8556;52.218;9.884;2022-08-05T05:20:11;19.10;99.90
16879;DHT22;8556;52.218;9.884;2022-08-05T05:22:39;19.30;99.90
16879;DHT22;8556;52.218;9.884;2022-08-05T05:25:08;19.40;99.90
16879;DHT22;8556;52.218;9.884;2022-08-05T05:27:35;19.60;99.90
16879;DHT22;8556;52.218;9.884;2022-08-05T05:30:03;19.70;99.90
16879;DHT22;8556;52.218;9.884;2022-08-05T05:32:30;19.80;99.90
16879;DHT22;8556;52.218;9.884;2022-08-05T05:34:58;19.80;99.90
16879;DHT22;8556;52.218;9.884;2022-08-05T05:37:25;19.80;99.90
16879;DHT22;8556;52.218;9.884;2022-08-05T05:39:52;19.50;99.90
16879;DHT22;8556;52.218;9.884;2022-08-05T05:42:19;19.60;99.90
16879;DHT22;8556;52.218;9.884;2022-08-05T05:44:46;19.80;99.90
16879;DHT22;8556;52.218;9.884;2022-08-05T05:47:13;20.00;99.90
16879;DHT22;8556;52.218;9.884;2022-08-05T05:49:40;19.80;99.90
16879;DHT22;8556;52.218;9.884;2022-08-05T05:52:08;19.90;99.90
16879;DHT22;8556;52.218;9.884;2022-08-05T05:54:36;19.90;99.90
16879;DHT22;8556;52.218;9.884;2022-08-05T05:57:03;20.00;99.90
16879;DHT22;8556;52.218;9.884;2022-08-05T05:59:30;20.00;99.90
16879;DHT22;8556;52.218;9.884;2022-08-05T06:01:57;19.80;99.90
16879;DHT22;8556;52.218;9.884;2022-08-05T06:04:24;20.00;99.90
16879;DHT22;8556;52.218;9.884;2022-08-05T06:06:51;19.80;99.90
16879;DHT22;8556;52.218;9.884;2022-08-05T06:09:20;19.80;99.90
16879;DHT22;8556;52.218;9.884;2022-08-05T06:11:47;19.70;99.90
16879;DHT22;8556;52.218;9.884;2022-08-05T06:14:14;19.50;99.90
16879;DHT22;8556;52.218;9.884;2022-08-05T06:16:41;19.40;99.90
16879;DHT22;8556;52.218;9.884;2022-08-05T06:19:08;19.20;99.90
16879;DHT22;8556;52.218;9.884;2022-08-05T06:21:36;19.10;99.90
16879;DHT22;8556;52.218;9.884;2022-08-05T06:24:04;18.80;99.90
16879;DHT22;8556;52.218;9.884;2022-08-05T06:26:32;18.80;99.90
16879;DHT22;8556;52.218;9.884;2022-08-05T06:28:59;18.60;99.90
16879;DHT22;8556;52.218;9.884;2022-08-05T06:31:26;18.60;99.90
16879;DHT22;8556;52.218;9.884;2022-08-05T06:33:53;18.70;99.90
16879;DHT22;8556;52.218;9.884;2022-08-05T06:36:20;18.50;99.90
16879;DHT22;8556;52.218;9.884;2022-08-05T06:38:48;18.40;99.90
16879;DHT22;8556;52.218;9.884;2022-08-05T06:41:18;18.40;99.90
16879;DHT22;8556;52.218;9.884;2022-08-05T06:43:46;18.30;99.90
16879;DHT22;8556;52.218;9.884;2022-08-05T06:46:14;18.40;99.90
16879;DHT22;8556;52.218;9.884;2022-08-05T06:48:41;18.30;99.90
16879;DHT22;8556;52.218;9.884;2022-08-05T06:51:08;18.20;99.90
16879;DHT22;8556;52.218;9.884;2022-08-05T06:53:35;18.10;99.90
16879;DHT22;8556;52.218;9.884;2022-08-05T06:56:03;18.10;99.90
16879;DHT22;8556;52.218;9.884;2022-08-05T06:58:30;18.20;99.90
16879;DHT22;8556;52.218;9.884;2022-08-05T07:00:59;18.10;99.90
16879;DHT22;8556;52.218;9.884;2022-08-05T07:03:26;18.10;99.90
16879;DHT22;8556;52.218;9.884;2022-08-05T07:05:53;18.10;99.90
16879;DHT22;8556;52.218;9.884;2022-08-05T07:08:20;18.20;99.90
16879;DHT22;8556;52.218;9.884;2022-08-05T07:10:47;18.20;99.90
16879;DHT22;8556;52.218;9.884;2022-08-05T07:13:14;18.20;99.90
16879;DHT22;8556;52.218;9.884;2022-08-05T07:16:00;18.40;99.90
16879;DHT22;8556;52.218;9.884;2022-08-05T07:18:44;18.50;99.90
16879;DHT22;8556;52.218;9.884;2022-08-05T07:21:11;18.30;99.90
16879;DHT22;8556;52.218;9.884;2022-08-05T07:23:38;18.50;99.90
16879;DHT22;8556;52.218;9.884;2022-08-05T07:26:05;18.60;99.90
16879;DHT22;8556;52.218;9.884;2022-08-05T07:28:32;18.70;99.90
16879;DHT22;8556;52.218;9.884;2022-08-05T07:31:00;18.90;99.90
16879;DHT22;8556;52.218;9.884;2022-08-05T07:33:27;19.00;99.90
16879;DHT22;8556;52.218;9.884;2022-08-05T07:35:54;19.00;99.90
16879;DHT22;8556;52.218;9.884;2022-08-05T07:38:21;19.30;99.90
16879;DHT22;8556;52.218;9.884;2022-08-05T07:40:48;19.40;99.90
16879;DHT22;8556;52.218;9.884;2022-08-05T07:43:15;19.80;99.90
16879;DHT22;8556;52.218;9.884;2022-08-05T07:45:42;19.60;99.90
16879;DHT22;8556;52.218;9.884;2022-08-05T07:48:11;19.50;99.90
16879;DHT22;8556;52.218;9.884;2022-08-05T07:50:38;19.30;99.90
16879;DHT22;8556;52.218;9.884;2022-08-05T07:53:05;19.30;99.90
16879;DHT22;8556;52.218;9.884;2022-08-05T07:55:32;19.30;99.90
16879;DHT22;8556;52.218;9.884;2022-08-05T07:57:59;19.30;99.90
16879;DHT22;8556;52.218;9.884;2022-08-05T08:00:26;19.30;99.90
16879;DHT22;8556;52.218;9.884;2022-08-05T08:02:53;19.40;99.90
16879;DHT22;8556;52.218;9.884;2022-08-05T08:05:21;19.50;99.90
16879;DHT22;8556;52.218;9.884;2022-08-05T08:07:48;19.40;99.90
16879;DHT22;8556;52.218;9.884;2022-08-05T08:10:15;19.50;99.90
16879;DHT22;8556;52.218;9.884;2022-08-05T08:12:43;19.40;99.90
16879;DHT22;8556;52.218;9.884;2022-08-05T08:15:10;19.20;99.90
16879;DHT22;8556;52.218;9.884;2022-08-05T08:17:37;19.10;99.90
16879;DHT22;8556;52.218;9.884;2022-08-05T08:20:05;18.90;99.90
16879;DHT22;8556;52.218;9.884;2022-08-05T08:22:33;18.90;99.90
16879;DHT22;8556;52.218;9.884;2022-08-05T08:25:00;18.90;99.90
16879;DHT22;8556;52.218;9.884;2022-08-05T08:27:27;19.00;99.90
16879;DHT22;8556;52.218;9.884;2022-08-05T08:29:55;19.00;99.90
16879;DHT22;8556;52.218;9.884;2022-08-05T08:32:22;19.30;99.90
16879;DHT22;8556;52.218;9.884;2022-08-05T08:34:49;19.40;99.90
16879;DHT22;8556;52.218;9.884;2022-08-05T08:37:17;19.00;99.90
16879;DHT22;8556;52.218;9.884;2022-08-05T08:39:46;19.00;99.90
16879;DHT22;8556;52.218;9.884;2022-08-05T08:42:13;19.00;99.90
16879;DHT22;8556;52.218;9.884;2022-08-05T08:44:41;19.00;99.90
16879;DHT22;8556;52.218;9.884;2022-08-05T08:47:10;18.80;99.90
16879;DHT22;8556;52.218;9.884;2022-08-05T08:49:43;18.90;99.90
16879;DHT22;8556;52.218;9.884;2022-08-05T08:52:12;18.90;99.90
16879;DHT22;8556;52.218;9.884;2022-08-05T08:54:39;18.60;99.90
16879;DHT22;8556;52.218;9.884;2022-08-05T08:57:10;18.80;99.90
16879;DHT22;8556;52.218;9.884;2022-08-05T08:59:37;18.90;99.90
16879;DHT22;8556;52.218;9.884;2022-08-05T09:02:05;19.00;99.90
16879;DHT22;8556;52.218;9.884;2022-08-05T09:04:33;19.20;99.90
16879;DHT22;8556;52.218;9.884;2022-08-05T09:07:03;19.10;99.90
16879;DHT22;8556;52.218;9.884;2022-08-05T09:09:31;19.10;99.90
16879;DHT22;8556;52.218;9.884;2022-08-05T09:11:58;19.20;99.90
16879;DHT22;8556;52.218;9.884;2022-08-05T09:14:26;19.20;99.90
16879;DHT22;8556;52.218;9.884;2022-08-05T09:16:53;19.30;99.90
16879;DHT22;8556;52.218;9.884;2022-08-05T09:19:20;19.20;99.90
16879;DHT22;8556;52.218;9.884;2022-08-05T09:21:47;19.20;99.90
16879;DHT22;8556;52.218;9.884;2022-08-05T09:24:14;19.00;99.90
16879;DHT22;8556;52.218;9.884;2022-08-05T09:26:45;18.80;99.90
16879;DHT22;8556;52.218;9.884;2022-08-05T09:29:13;18.70;99.90
16879;DHT22;8556;52.218;9.884;2022-08-05T09:31:41;18.70;99.90
16879;DHT22;8556;52.218;9.884;2022-08-05T09:34:10;18.60;99.90
16879;DHT22;8556;52.218;9.884;2022-08-05T09:36:42;18.90;99.90
16879;DHT22;8556;52.218;9.884;2022-08-05T09:39:11;18.70;99.90
16879;DHT22;8556;52.218;9.884;2022-08-05T09:41:55;18.80;99.90
16879;DHT22;8556;52.218;9.884;2022-08-05T09:44:33;18.70;99.90
16879;DHT22;8556;52.218;9.884;2022-08-05T09:47:10;18.80;99.90
16879;DHT22;8556;52.218;9.884;2022-08-05T09:49:42;18.80;99.90
16879;DHT22;8556;52.218;9.884;2022-08-05T09:52:22;18.90;99.90
16879;DHT22;8556;52.218;9.884;2022-08-05T09:54:57;18.70;99.90
16879;DHT22;8556;52.218;9.884;2022-08-05T09:57:29;18.80;99.90
16879;DHT22;8556;52.218;9.884;2022-08-05T09:59:57;18.90;99.90
16879;DHT22;8556;52.218;9.884;2022-08-05T10:02:33;18.90;99.90
16879;DHT22;8556;52.218;9.884;2022-08-05T10:05:09;18.90;99.90
16879;DHT22;8556;52.218;9.884;2022-08-05T10:07:48;18.90;99.90
16879;DHT22;8556;52.218;9.884;2022-08-05T10:10:16;18.80;99.90
16879;DHT22;8556;52.218;9.884;2022-08-05T10:12:46;18.80;99.90
16879;DHT22;8556;52.218;9.884;2022-08-05T10:15:23;18.80;99.90
16879;DHT22;8556;52.218;9.884;2022-08-05T10:18:09;18.80;99.90
16879;DHT22;8556;52.218;9.884;2022-08-05T10:20:40;18.90;99.90
16879;DHT22;8556;52.218;9.884;2022-08-05T10:23:09;18.90;99.90
16879;DHT22;8556;52.218;9.884;2022-08-05T10:25:37;18.90;99.90
16879;DHT22;8556;52.218;9.884;2022-08-05T10:28:05;19.00;99.90
16879;DHT22;8556;52.218;9.884;2022-08-05T10:30:32;19.00;99.90
16879;DHT22;8556;52.218;9.884;2022-08-05T10:33:02;19.20;99.90
16879;DHT22;8556;52.218;9.884;2022-08-05T10:35:30;19.00;99.90
16879;DHT22;8556;52.218;9.884;2022-08-05T10:37:57;19.20;99.90
16879;DHT22;8556;52.218;9.884;2022-08-05T10:40:30;19.20;99.90
16879;DHT22;8556;52.218;9.884;2022-08-05T10:43:03;19.30;99.90
16879;DHT22;8556;52.218;9.884;2022-08-05T10:45:34;19.30;99.90
16879;DHT22;8556;52.218;9.884;2022-08-05T10:48:32;19.40;99.90
16879;DHT22;8556;52.218;9.884;2022-08-05T10:51:04;19.20;99.90
16879;DHT22;8556;52.218;9.884;2022-08-05T10:53:33;19.00;99.90
16879;DHT22;8556;52.218;9.884;2022-08-05T10:56:02;19.00;99.90
16879;DHT22;8556;52.218;9.884;2022-08-05T10:58:29;18.90;99.90
16879;DHT22;8556;52.218;9.884;2022-08-05T11:00:56;18.90;99.90
16879;DHT22;8556;52.218;9.884;2022-08-05T11:03:23;18.60;99.90
16879;DHT22;8556;52.218;9.884;2022-08-05T11:06:06;18.70;99.90
16879;DHT22;8556;52.218;9.884;2022-08-05T11:08:34;18.60;99.90
16879;DHT22;8556;52.218;9.884;2022-08-05T11:11:32;18.50;99.90
16879;DHT22;8556;52.218;9.884;2022-08-05T11:14:01;18.60;99.90
16879;DHT22;8556;52.218;9.884;2022-08-05T11:16:28;18.50;99.90
16879;DHT22;8556;52.218;9.884;2022-08-05T11:19:22;18.40;99.90
16879;DHT22;8556;52.218;9.884;2022-08-05T11:21:51;18.40;99.90
16879;DHT22;8556;52.218;9.884;2022-08-05T11:24:18;18.40;99.90
16879;DHT22;8556;52.218;9.884;2022-08-05T11:26:46;18.40;99.90
16879;DHT22;8556;52.218;9.884;2022-08-05T11:29:34;18.60;99.90
16879;DHT22;8556;52.218;9.884;2022-08-05T11:32:24;18.50;99.90
16879;DHT22;8556;52.218;9.884;2022-08-05T11:34:52;18.40;99.90
16879;DHT22;8556;52.218;9.884;2022-08-05T11:40:57;18.50;99.90
16879;DHT22;8556;52.218;9.884;2022-08-05T11:43:25;18.60;99.90
16879;DHT22;8556;52.218;9.884;2022-08-05T11:45:52;18.60;99.90
16879;DHT22;8556;52.218;9.884;2022-08-05T11:48:20;18.60;99.90
16879;DHT22;8556;52.218;9.884;2022-08-05T11:50:48;18.60;99.90
16879;DHT22;8556;52.218;9.884;2022-08-05T11:53:16;18.70;99.90
16879;DHT22;8556;52.218;9.884;2022-08-05T11:55:58;18.60;99.90
16879;DHT22;8556;52.218;9.884;2022-08-05T11:58:29;18.70;99.90
16879;DHT22;8556;52.218;9.884;2022-08-05T12:01:03;18.50;99.90
16879;DHT22;8556;52.218;9.884;2022-08-05T12:03:41;18.60;99.90
16879;DHT22;8556;52.218;9.884;2022-08-05T12:06:08;18.70;99.90
16879;DHT22;8556;52.218;9.884;2022-08-05T12:08:41;18.70;99.90
16879;DHT22;8556;52.218;9.884;2022-08-05T12:11:10;18.80;99.90
16879;DHT22;8556;52.218;9.884;2022-08-05T12:13:52;18.80;99.90
16879;DHT22;8556;52.218;9.884;2022-08-05T12:16:20;18.70;99.90
16879;DHT22;8556;52.218;9.884;2022-08-05T12:18:47;18.70;99.90
16879;DHT22;8556;52.218;9.884;2022-08-05T12:21:16;18.70;99.90
16879;DHT22;8556;52.218;9.884;2022-08-05T12:23:53;18.60;99.90
16879;DHT22;8556;52.218;9.884;2022-08-05T12:26:22;18.60;99.90
16879;DHT22;8556;52.218;9.884;2022-08-05T12:28:49;18.80;99.90
16879;DHT22;8556;52.218;9.884;2022-08-05T12:31:16;18.60;99.90
16879;DHT22;8556;52.218;9.884;2022-08-05T12:33:43;18.60;99.90
16879;DHT22;8556;52.218;9.884;2022-08-05T12:36:11;18.70;99.90
16879;DHT22;8556;52.218;9.884;2022-08-05T12:38:39;18.90;99.90
16879;DHT22;8556;52.218;9.884;2022-08-05T12:41:07;19.00;99.90
16879;DHT22;8556;52.218;9.884;2022-08-05T12:43:50;19.00;99.90
16879;DHT22;8556;52.218;9.884;2022-08-05T12:46:21;18.90;99.90
16879;DHT22;8556;52.218;9.884;2022-08-05T12:48:56;18.60;99.90
16879;DHT22;8556;52.218;9.884;2022-08-05T12:51:23;18.40;99.90
16879;DHT22;8556;52.218;9.884;2022-08-05T12:53:57;18.10;99.90
16879;DHT22;8556;52.218;9.884;2022-08-05T12:56:24;18.10;99.90
16879;DHT22;8556;52.218;9.884;2022-08-05T12:59:15;18.30;99.90
16879;DHT22;8556;52.218;9.884;2022-08-05T13:01:44;18.30;99.90
16879;DHT22;8556;52.218;9.884;2022-08-05T13:04:11;18.40;99.90
16879;DHT22;8556;52.218;9.884;2022-08-05T13:06:40;18.50;99.90
16879;DHT22;8556;52.218;9.884;2022-08-05T13:09:09;18.50;99.90
16879;DHT22;8556;52.218;9.884;2022-08-05T13:11:39;18.70;99.90
16879;DHT22;8556;52.218;9.884;2022-08-05T13:14:15;18.60;99.90
16879;DHT22;8556;52.218;9.884;2022-08-05T13:16:47;18.60;99.90
16879;DHT22;8556;52.218;9.884;2022-08-05T13:19:14;18.70;99.90
16879;DHT22;8556;52.218;9.884;2022-08-05T13:21:44;18.60;99.90
16879;DHT22;8556;52.218;9.884;2022-08-05T13:24:11;18.60;99.90
16879;DHT22;8556;52.218;9.884;2022-08-05T13:26:38;18.80;99.90
16879;DHT22;8556;52.218;9.884;2022-08-05T13:29:05;18.80;99.90
16879;DHT22;8556;52.218;9.884;2022-08-05T13:31:33;19.00;99.90
16879;DHT22;8556;52.218;9.884;2022-08-05T13:34:00;19.00;99.90
16879;DHT22;8556;52.218;9.884;2022-08-05T13:36:27;19.20;99.90
16879;DHT22;8556;52.218;9.884;2022-08-05T13:38:55;19.20;99.90
16879;DHT22;8556;52.218;9.884;2022-08-05T13:41:22;19.00;99.90
16879;DHT22;8556;52.218;9.884;2022-08-05T13:43:49;18.90;99.90
16879;DHT22;8556;52.218;9.884;2022-08-05T13:46:16;18.90;99.90
16879;DHT22;8556;52.218;9.884;2022-08-05T13:48:44;18.90;99.90
16879;DHT22;8556;52.218;9.884;2022-08-05T13:51:12;18.90;99.90
16879;DHT22;8556;52.218;9.884;2022-08-05T13:53:40;19.00;99.90
16879;DHT22;8556;52.218;9.884;2022-08-05T13:56:08;19.10;99.90
16879;DHT22;8556;52.218;9.884;2022-08-05T13:58:35;19.00;99.90
16879;DHT22;8556;52.218;9.884;2022-08-05T14:01:02;19.00;99.90
16879;DHT22;8556;52.218;9.884;2022-08-05T14:03:30;18.90;99.90
16879;DHT22;8556;52.218;9.884;2022-08-05T14:05:58;18.80;99.90
16879;DHT22;8556;52.218;9.884;2022-08-05T14:08:24;18.90;99.90
16879;DHT22;8556;52.218;9.884;2022-08-05T14:10:51;18.90;99.90
16879;DHT22;8556;52.218;9.884;2022-08-05T14:13:18;19.10;99.90
16879;DHT22;8556;52.218;9.884;2022-08-05T14:15:45;19.00;99.90
16879;DHT22;8556;52.218;9.884;2022-08-05T14:18:12;19.10;99.90
16879;DHT22;8556;52.218;9.884;2022-08-05T14:20:39;19.20;99.90
16879;DHT22;8556;52.218;9.884;2022-08-05T14:23:07;19.20;99.90
16879;DHT22;8556;52.218;9.884;2022-08-05T14:25:34;19.30;99.90
16879;DHT22;8556;52.218;9.884;2022-08-05T14:28:01;19.40;99.90
16879;DHT22;8556;52.218;9.884;2022-08-05T14:30:28;19.20;99.90
16879;DHT22;8556;52.218;9.884;2022-08-05T14:32:55;19.40;99.90
16879;DHT22;8556;52.218;9.884;2022-08-05T14:35:23;19.50;99.90
16879;DHT22;8556;52.218;9.884;2022-08-05T14:37:50;19.50;99.90
16879;DHT22;8556;52.218;9.884;2022-08-05T14:40:18;19.60;99.90
16879;DHT22;8556;52.218;9.884;2022-08-05T14:42:45;19.60;99.90
16879;DHT22;8556;52.218;9.884;2022-08-05T14:45:12;19.80;99.90
16879;DHT22;8556;52.218;9.884;2022-08-05T14:47:39;19.80;99.90
16879;DHT22;8556;52.218;9.884;2022-08-05T14:50:07;19.80;99.90
16879;DHT22;8556;52.218;9.884;2022-08-05T14:52:34;20.00;99.90
16879;DHT22;8556;52.218;9.884;2022-08-05T14:55:01;19.90;99.90
16879;DHT22;8556;52.218;9.884;2022-08-05T14:57:29;19.90;99.90
16879;DHT22;8556;52.218;9.884;2022-08-05T14:59:56;20.00;99.90
16879;DHT22;8556;52.218;9.884;2022-08-05T15:02:23;19.80;99.90
16879;DHT22;8556;52.218;9.884;2022-08-05T15:04:50;19.80;99.90
16879;DHT22;8556;52.218;9.884;2022-08-05T15:07:18;19.90;99.90
16879;DHT22;8556;52.218;9.884;2022-08-05T15:09:45;20.00;99.90
16879;DHT22;8556;52.218;9.884;2022-08-05T15:12:12;20.10;99.90
16879;DHT22;8556;52.218;9.884;2022-08-05T15:14:40;20.10;99.90
16879;DHT22;8556;52.218;9.884;2022-08-05T15:17:07;20.00;99.90
16879;DHT22;8556;52.218;9.884;2022-08-05T15:19:34;20.00;99.90
16879;DHT22;8556;52.218;9.884;2022-08-05T15:22:01;20.10;99.90
16879;DHT22;8556;52.218;9.884;2022-08-05T15:24:28;20.00;99.90
16879;DHT22;8556;52.218;9.884;2022-08-05T15:26:55;20.10;99.90
16879;DHT22;8556;52.218;9.884;2022-08-05T15:29:22;20.20;99.90
16879;DHT22;8556;52.218;9.884;2022-08-05T15:31:51;20.10;99.90
16879;DHT22;8556;52.218;9.884;2022-08-05T15:34:18;20.10;99.90
16879;DHT22;8556;52.218;9.884;2022-08-05T15:36:45;19.90;99.90
16879;DHT22;8556;52.218;9.884;2022-08-05T15:39:12;19.90;99.90
16879;DHT22;8556;52.218;9.884;2022-08-05T15:41:39;20.00;99.90
16879;DHT22;8556;52.218;9.884;2022-08-05T15:44:06;20.20;99.90
16879;DHT22;8556;52.218;9.884;2022-08-05T15:46:33;20.10;99.90
16879;DHT22;8556;52.218;9.884;2022-08-05T15:49:01;20.00;99.90
16879;DHT22;8556;52.218;9.884;2022-08-05T15:51:29;20.20;99.90
16879;DHT22;8556;52.218;9.884;2022-08-05T15:53:56;20.30;99.90
16879;DHT22;8556;52.218;9.884;2022-08-05T15:56:23;20.50;99.90
16879;DHT22;8556;52.218;9.884;2022-08-05T15:58:50;20.60;99.90
16879;DHT22;8556;52.218;9.884;2022-08-05T16:01:17;20.80;99.90